Time;durP1;ratioP1;P1;durP2;ratioP2;P2;SDS_P1;SDS_P2;PMS_P1;PMS_P2;Temp;Humidity;BMP_temperature;BMP_pressure;BME280_temperature;BME280_humidity;BME280_pressure;Samples;Min_cycle;Max_cycle;Signal;HPM_P1;HPM_P2
2021/03/22 00:01:52;;;;;;;5.28;2.40;;;;;;;17.31;55.90;102669.06;6153611;23;20044;-81
2021/03/22 00:07:20;;;;;;;6.10;2.40;;;;;;;17.27;56.06;102652.53;6292235;22;20062;-81
2021/03/22 00:09:50;;;;;;;5.07;2.25;;;;;;;17.28;55.77;102660.34;6246651;23;20001;-80
2021/03/22 00:12:37;;;;;;;6.38;2.42;;;;;;;17.30;55.86;102662.13;6242225;23;19997;-80
2021/03/22 00:15:30;;;;;;;5.20;2.50;;;;;;;17.30;55.76;102647.38;6242774;23;20000;-81
2021/03/22 00:18:14;;;;;;;4.97;2.50;;;;;;;17.30;55.70;102649.97;6245271;22;20030;-80
2021/03/22 00:20:56;;;;;;;5.93;2.63;;;;;;;17.29;55.95;102653.44;6282185;22;20042;-80
2021/03/22 00:23:52;;;;;;;8.38;2.70;;;;;;;17.29;56.00;102653.44;6265441;22;21027;-81
2021/03/22 00:26:47;;;;;;;4.80;2.53;;;;;;;17.26;55.55;102648.16;6247042;23;20051;-81
2021/03/22 00:31:57;;;;;;;4.72;2.35;;;;;;;17.27;55.63;102649.91;6282767;22;20084;-81
2021/03/22 00:34:31;;;;;;;4.05;2.20;;;;;;;17.26;55.54;102648.16;6279650;22;20014;-80
2021/03/22 00:39:34;;;;;;;5.78;2.50;;;;;;;17.25;55.55;102652.47;6240721;22;20120;-80
2021/03/22 00:42:18;;;;;;;5.20;2.55;;;;;;;17.26;55.45;102645.56;6244056;22;20024;-81
2021/03/22 00:47:24;;;;;;;5.45;2.28;;;;;;;17.25;55.22;102641.22;6303183;22;20020;-81
2021/03/22 00:53:03;;;;;;;4.72;2.72;;;;;;;17.28;55.59;102651.66;6297977;22;20031;-80
2021/03/22 00:55:57;;;;;;;5.88;2.30;;;;;;;17.27;55.60;102658.59;6304825;22;20027;-81
2021/03/22 00:58:24;;;;;;;3.78;2.58;;;;;;;17.24;55.20;102655.03;6212094;23;20068;-80
2021/03/22 01:01:28;;;;;;;4.65;2.38;;;;;;;17.27;55.30;102649.91;6212680;23;20020;-80
2021/03/22 01:07:32;;;;;;;4.55;2.30;;;;;;;17.22;55.35;102629.03;6258570;22;20127;-81
2021/03/22 01:10:07;;;;;;;4.38;2.40;;;;;;;17.23;55.34;102637.69;6304600;22;20000;-81
2021/03/22 01:12:44;;;;;;;4.63;2.40;;;;;;;17.22;55.32;102639.44;6228578;22;20012;-81
2021/03/22 01:15:13;;;;;;;4.45;2.50;;;;;;;17.24;55.32;102639.44;6303869;22;20014;-80
2021/03/22 01:18:18;;;;;;;5.05;2.53;;;;;;;17.25;55.07;102643.81;6304248;22;20035;-80
2021/03/22 01:27:54;;;;;;;5.65;2.30;;;;;;;17.25;55.20;102628.19;6266971;22;20569;-80
2021/03/22 01:30:42;;;;;;;5.60;2.80;;;;;;;17.25;55.09;102630.78;6272801;22;20019;-80
2021/03/22 01:33:14;;;;;;;5.05;2.53;;;;;;;17.25;55.11;102638.59;6272280;22;20129;-80
2021/03/22 01:35:43;;;;;;;5.53;2.70;;;;;;;17.24;55.00;102639.44;6297259;22;19991;-80
2021/03/22 01:38:17;;;;;;;4.72;2.58;;;;;;;17.22;55.09;102631.63;6273568;22;20003;-80
2021/03/22 01:41:13;;;;;;;3.40;2.13;;;;;;;17.24;55.06;102631.63;6276093;22;19992;-80
2021/03/22 01:46:33;;;;;;;4.28;2.38;;;;;;;17.24;55.07;102621.22;6271767;22;20056;-80
2021/03/22 01:49:01;;;;;;;5.15;2.25;;;;;;;17.24;55.04;102616.00;6245917;22;19988;-80
2021/03/22 01:51:34;;;;;;;4.82;2.13;;;;;;;17.21;55.15;102618.56;6246339;23;20004;-81
2021/03/22 01:54:06;;;;;;;4.18;2.50;;;;;;;17.21;55.05;102618.56;6244319;23;20011;-81
2021/03/22 01:56:42;;;;;;;4.68;2.50;;;;;;;17.21;54.77;102619.44;6246006;23;19988;-80
2021/03/22 01:59:41;;;;;;;4.60;2.45;;;;;;;17.21;54.96;102615.97;6272076;23;20072;-80
2021/03/22 02:04:53;;;;;;;4.70;2.40;;;;;;;17.21;54.84;102608.16;6288854;22;20047;-80
2021/03/22 02:07:54;;;;;;;4.40;2.47;;;;;;;17.24;55.09;102605.59;6282645;22;20032;-81
2021/03/22 02:10:26;;;;;;;;;;;;;;;17.24;54.91;102608.22;6261864;23;20078;-80
2021/03/22 02:13:12;;;;;;;4.82;2.10;;;;;;;17.24;54.69;102609.09;6216044;23;19898;-81
2021/03/22 02:16:26;;;;;;;3.50;2.08;;;;;;;17.24;54.82;102608.22;6217540;23;20008;-80
2021/03/22 02:19:54;;;;;;;5.05;2.58;;;;;;;17.24;55.00;102606.47;6146182;23;20341;-80
2021/03/22 02:22:55;;;;;;;5.50;2.67;;;;;;;17.24;54.84;102603.00;6188819;22;20050;-80
2021/03/22 02:29:17;;;;;;;3.85;2.10;;;;;;;17.20;54.53;102594.28;6293250;22;20061;-80
2021/03/22 02:32:29;;;;;;;3.83;2.40;;;;;;;17.21;54.89;102601.22;6226060;23;20017;-80
2021/03/22 02:35:34;;;;;;;3.85;2.40;;;;;;;17.20;54.70;102604.69;6274135;22;20030;-80
2021/03/22 02:38:37;;;;;;;4.78;2.30;;;;;;;17.22;54.62;102599.50;6297794;22;20042;-81
2021/03/22 02:41:16;;;;;;;4.00;2.38;;;;;;;17.20;54.50;102595.97;6262057;22;20077;-80
2021/03/22 02:44:10;;;;;;;4.72;2.47;;;;;;;17.21;54.60;102595.16;6249243;22;20019;-81
2021/03/22 02:49:31;;;;;;;4.80;2.20;;;;;;;17.21;54.48;102601.22;6269145;22;20020;-80
2021/03/22 02:52:29;;;;;;;4.63;2.17;;;;;;;17.21;54.49;102600.34;6245109;23;20008;-80
2021/03/22 02:55:20;;;;;;;5.35;2.50;;;;;;;17.19;54.13;102595.13;6247838;22;20031;-80
2021/03/22 02:58:15;;;;;;;4.70;2.35;;;;;;;17.19;54.70;102587.31;6274700;22;20004;-80
2021/03/22 03:01:13;;;;;;;4.13;2.40;;;;;;;17.20;54.44;102588.19;6275217;22;19992;-80
2021/03/22 03:03:42;;;;;;;5.32;2.15;;;;;;;17.16;54.44;102587.25;6275904;22;20004;-79
2021/03/22 03:06:55;;;;;;;4.97;2.15;;;;;;;17.18;54.61;102595.97;6223996;23;20017;-80
2021/03/22 03:12:45;;;;;;;5.10;2.30;;;;;;;17.18;54.34;102587.28;6243484;23;20071;-80
2021/03/22 03:15:13;;;;;;;3.80;2.15;;;;;;;17.19;54.42;102583.84;6242329;23;20008;-80
2021/03/22 03:17:41;;;;;;;5.10;2.50;;;;;;;17.19;54.38;102589.91;6241647;23;19988;-80
2021/03/22 03:20:44;;;;;;;3.30;2.10;;;;;;;17.17;54.39;102589.00;6238556;22;20011;-80
2021/03/22 03:23:15;;;;;;;4.38;1.95;;;;;;;17.18;54.34;102590.78;6243992;22;20024;-81
2021/03/22 03:25:47;;;;;;;4.00;2.08;;;;;;;17.18;54.50;102595.06;6199384;22;19996;-80
2021/03/22 03:28:14;;;;;;;4.28;2.38;;;;;;;17.19;54.19;102595.13;6257077;22;20072;-80
2021/03/22 03:30:43;;;;;;;5.40;2.15;;;;;;;17.17;54.31;102593.34;6268649;22;20007;-80
2021/03/22 03:33:14;;;;;;;5.40;2.75;;;;;;;17.18;54.20;102595.06;6263286;22;20012;-80
2021/03/22 03:35:53;;;;;;;4.22;1.88;;;;;;;17.18;54.21;102602.88;6223675;22;20038;-80
2021/03/22 03:38:37;;;;;;;3.63;2.10;;;;;;;17.16;54.33;102595.06;6256635;22;20013;-81
2021/03/22 03:41:05;;;;;;;3.85;1.90;;;;;;;17.18;54.00;102595.06;6279422;22;20004;-80
2021/03/22 03:44:22;;;;;;;5.30;2.28;;;;;;;17.18;54.28;102595.06;6245865;22;20047;-80
2021/03/22 03:46:57;;;;;;;3.95;2.30;;;;;;;17.18;54.25;102602.88;6238270;22;20027;-80
2021/03/22 03:52:09;;;;;;;7.18;2.03;;;;;;;17.18;54.16;102602.88;6272968;22;20083;-80
2021/03/22 03:54:40;;;;;;;5.18;2.13;;;;;;;17.15;54.28;102595.91;6272856;23;19988;-81
2021/03/22 03:57:13;;;;;;;3.10;1.77;;;;;;;17.17;54.19;102602.00;6242825;23;20008;-81
2021/03/22 03:59:40;;;;;;;4.13;1.88;;;;;;;17.17;54.11;102595.94;6273054;23;19984;-80
2021/03/22 04:02:06;;;;;;;3.88;1.95;;;;;;;17.15;54.23;102601.09;6271923;23;20014;-81
2021/03/22 04:04:36;;;;;;;4.38;1.92;;;;;;;17.14;54.37;102601.97;6244220;22;20000;-80
2021/03/22 04:10:04;;;;;;;3.67;2.03;;;;;;;17.15;54.23;102601.09;6275206;22;20057;-79
2021/03/22 04:12:39;;;;;;;3.70;2.20;;;;;;;17.16;54.21;102604.56;6199483;23;20074;-80
2021/03/22 04:15:16;;;;;;;5.50;2.20;;;;;;;17.15;54.01;102603.69;6224519;22;20050;-80
2021/03/22 04:20:48;;;;;;;2.83;1.63;;;;;;;17.14;54.08;102601.09;6239166;23;20131;-80
2021/03/22 04:23:36;;;;;;;5.78;2.30;;;;;;;17.13;54.20;102596.72;6223124;23;20025;-80
2021/03/22 04:29:11;;;;;;;6.25;2.00;;;;;;;17.15;54.25;102613.25;6301824;22;20020;-80
2021/03/22 04:31:45;;;;;;;4.80;1.95;;;;;;;17.13;54.22;102609.72;6213033;23;20005;-80
2021/03/22 04:34:14;;;;;;;2.72;1.60;;;;;;;17.13;54.09;102604.53;6175634;23;19998;-79
2021/03/22 04:37:39;;;;;;;3.63;2.05;;;;;;;17.14;54.11;102609.75;6178024;23;20010;-80
2021/03/22 04:40:44;;;;;;;3.35;1.73;;;;;;;17.13;53.98;102601.91;6177070;23;20074;-80
2021/03/22 04:43:11;;;;;;;3.45;1.60;;;;;;;17.13;54.08;102613.19;6177464;23;20009;-80
2021/03/22 04:45:40;;;;;;;2.95;1.60;;;;;;;17.12;54.05;102607.97;6176167;23;20005;-80
2021/03/22 04:50:37;;;;;;;2.85;1.75;;;;;;;17.11;53.96;102607.09;6323836;22;20015;-80
2021/03/22 04:53:10;;;;;;;3.97;1.67;;;;;;;17.11;53.89;102606.22;6276095;22;20074;-80
2021/03/22 04:55:44;;;;;;;4.28;2.15;;;;;;;17.11;54.10;102595.81;6329321;22;19996;-81
2021/03/22 04:58:48;;;;;;;4.15;2.20;;;;;;;17.12;54.39;102603.66;6307323;22;20392;-80
2021/03/22 05:04:21;;;;;;;4.13;2.00;;;;;;;17.14;54.47;102603.69;6292990;22;20077;-80
2021/03/22 05:10:19;;;;;;;2.75;1.60;;;;;;;17.15;54.53;102608.91;6237124;23;20022;-80
2021/03/22 05:12:46;;;;;;;3.90;1.80;;;;;;;17.14;54.60;102601.97;6236325;23;20060;-81
2021/03/22 05:15:32;;;;;;;3.40;1.90;;;;;;;17.16;54.65;102602.88;6238780;23;20001;-81
2021/03/22 05:18:04;;;;;;;3.90;1.88;;;;;;;17.14;54.52;102609.75;6239316;23;20001;-80
2021/03/22 05:20:51;;;;;;;3.22;1.55;;;;;;;17.17;54.59;102616.75;6213185;23;20005;-81
2021/03/22 05:23:30;;;;;;;4.28;1.70;;;;;;;17.14;54.41;102604.56;6215890;22;20066;-81
2021/03/22 05:26:23;;;;;;;3.05;1.50;;;;;;;17.15;54.26;102611.50;6208448;22;20009;-81
2021/03/22 05:29:11;;;;;;;2.78;1.60;;;;;;;17.16;54.46;102617.56;6153207;23;20017;-81
2021/03/22 05:31:38;;;;;;;2.60;1.70;;;;;;;17.18;54.41;102631.50;6179370;23;20020;-81
2021/03/22 05:34:10;;;;;;;3.85;1.75;;;;;;;17.17;54.57;102637.56;6177744;23;19997;-81
2021/03/22 05:39:23;;;;;;;4.00;1.60;;;;;;;17.18;54.49;102631.50;6116959;23;20080;-81
2021/03/22 05:42:18;;;;;;;2.15;1.50;;;;;;;17.20;54.48;102633.31;6116411;23;19995;-83
2021/03/22 05:45:04;;;;;;;3.47;1.52;;;;;;;17.20;54.54;102637.63;6093770;23;20007;-83
2021/03/22 05:47:51;;;;;;;2.88;1.50;;;;;;;17.21;54.56;102641.97;6093148;23;20058;-81
2021/03/22 05:50:26;;;;;;;2.70;1.30;;;;;;;17.20;54.64;102641.13;6115196;23;20007;-81
2021/03/22 05:53:16;;;;;;;4.40;1.50;;;;;;;17.22;54.48;102644.63;6116749;23;19994;-82
2021/03/22 05:56:05;;;;;;;2.00;1.23;;;;;;;17.24;54.51;102649.84;6117505;23;20006;-82
2021/03/22 05:59:21;;;;;;;1.70;1.00;;;;;;;17.24;54.34;102655.91;6253138;22;20062;-82
2021/03/22 06:02:16;;;;;;;2.05;1.27;;;;;;;17.25;54.37;102656.81;6251326;22;20084;-81
2021/03/22 06:05:09;;;;;;;1.98;1.40;;;;;;;17.25;54.48;102654.22;6263916;22;20031;-79
2021/03/22 06:07:55;;;;;;;2.35;1.40;;;;;;;17.25;54.42;102652.47;6249781;22;20068;-81
2021/03/22 06:11:07;;;;;;;5.35;1.20;;;;;;;17.26;54.40;102658.56;6131142;23;20006;-81
2021/03/22 06:43:25;;;;;;;12.18;3.50;;;;;;;17.50;54.62;102662.50;6292389;22;20026;-81
2021/03/22 06:46:47;;;;;;;9.18;3.53;;;;;;;17.53;54.67;102663.47;6252127;22;20015;-81
2021/03/22 06:49:24;;;;;;;6.65;2.83;;;;;;;17.53;54.53;102666.06;6303466;22;20007;-81
2021/03/22 06:52:22;;;;;;;9.30;2.85;;;;;;;17.50;54.77;102663.38;6251530;22;20012;-82
2021/03/22 06:59:08;;;;;;;8.27;3.38;;;;;;;17.49;54.63;102664.25;6244312;23;20068;-80
2021/03/22 07:05:50;;;;;;;7.50;2.58;;;;;;;17.61;54.31;102661.00;6183226;23;20024;-81
2021/03/22 07:08:37;;;;;;;6.82;2.60;;;;;;;17.82;53.98;102665.78;6147793;23;20021;-79
2021/03/22 07:15:14;;;;;;;7.53;2.35;;;;;;;17.75;53.99;102667.34;6273625;22;20063;-81
2021/03/22 07:21:09;;;;;;;4.35;2.42;;;;;;;17.61;54.15;102669.66;6302480;22;20008;-81
2021/03/22 07:24:06;;;;;;;6.13;2.30;;;;;;;17.60;54.34;102674.88;6278007;22;20059;-81
2021/03/22 07:30:42;;;;;;;4.68;2.17;;;;;;;17.57;54.34;102672.19;6237491;22;20029;-82
2021/03/22 07:39:37;;;;;;;5.63;2.38;;;;;;;17.65;54.30;102675.81;6273695;22;20038;-82
2021/03/22 07:42:56;;;;;;;5.07;2.13;;;;;;;17.65;54.37;102678.44;6257758;22;20008;-82
2021/03/22 07:46:01;;;;;;;7.97;1.80;;;;;;;17.65;54.10;102684.50;6270822;23;20063;-80
2021/03/22 07:48:50;;;;;;;;;;;;;;;17.67;54.17;102680.22;6243752;23;20011;-80
2021/03/22 07:51:54;;;;;;;4.38;2.00;;;;;;;17.68;54.07;102683.69;6211817;23;19895;-80
2021/03/22 07:54:48;;;;;;;5.83;2.07;;;;;;;17.66;54.13;102682.81;6273221;23;20497;-80
2021/03/22 07:57:52;;;;;;;4.60;1.75;;;;;;;17.66;54.25;102686.28;6246287;23;20035;-80
2021/03/22 08:03:48;;;;;;;3.78;1.55;;;;;;;17.71;53.69;102683.75;6271333;23;19914;-80
2021/03/22 08:06:54;;;;;;;5.38;1.75;;;;;;;17.78;53.99;102688.22;6264607;23;20007;-80
2021/03/22 08:09:47;;;;;;;3.72;1.40;;;;;;;17.84;53.78;102684.91;6242751;23;20022;-81
2021/03/22 08:12:30;;;;;;;3.85;1.70;;;;;;;18.14;53.28;102688.91;6242872;23;19985;-80
2021/03/22 08:15:03;;;;;;;;;;;;;;;18.58;52.34;102689.66;6240217;23;20004;-81
2021/03/22 08:17:51;;;;;;;3.33;1.50;;;;;;;18.30;52.51;102701.34;6262551;23;19911;-81
2021/03/22 08:20:29;;;;;;;2.47;1.25;;;;;;;18.13;52.85;102697.59;6236839;23;20004;-81
2021/03/22 08:25:38;;;;;;;5.35;1.83;;;;;;;17.99;53.24;102705.16;6295619;22;20032;-81
2021/03/22 08:28:38;;;;;;;2.53;1.40;;;;;;;17.94;53.14;102707.66;6297430;22;20063;-80
2021/03/22 08:31:43;;;;;;;2.65;1.38;;;;;;;17.94;53.33;102712.00;6298127;22;20019;-80
2021/03/22 08:34:58;;;;;;;3.33;1.65;;;;;;;17.91;53.32;102718.03;6330553;22;20003;-80
2021/03/22 08:37:54;;;;;;;3.00;1.50;;;;;;;17.93;53.10;102711.13;6211978;23;20012;-81
2021/03/22 08:40:53;;;;;;;2.65;1.30;;;;;;;18.00;53.03;102710.38;6332284;22;20003;-81
2021/03/22 08:43:42;;;;;;;3.20;1.40;;;;;;;18.08;53.03;102703.59;6312741;22;20007;-80
2021/03/22 08:46:38;;;;;;;3.20;1.40;;;;;;;18.15;52.71;102707.19;6304586;22;19995;-80
2021/03/22 08:51:41;;;;;;;2.45;1.25;;;;;;;18.23;52.30;102702.97;6267765;22;20030;-80
2021/03/22 08:54:45;;;;;;;2.00;1.20;;;;;;;18.40;52.13;102694.56;6218385;23;20012;-82
2021/03/22 08:57:26;;;;;;;2.65;1.30;;;;;;;18.48;51.99;102700.78;6219640;23;20024;-81
2021/03/22 09:00:30;;;;;;;2.80;1.48;;;;;;;18.42;52.06;102703.28;6265167;23;20019;-81
2021/03/22 09:03:26;;;;;;;3.10;1.30;;;;;;;18.19;52.33;102698.56;6239022;23;20004;-80
2021/03/22 09:06:15;;;;;;;2.75;1.52;;;;;;;18.07;52.61;102714.88;6264586;23;20004;-80
2021/03/22 09:08:59;;;;;;;4.07;1.40;;;;;;;17.96;52.84;102707.69;6240056;23;20000;-81
2021/03/22 09:11:31;;;;;;;2.90;1.17;;;;;;;17.89;52.60;102711.91;6266294;23;20079;-79
2021/03/22 09:14:37;;;;;;;2.40;1.08;;;;;;;17.85;52.76;102713.56;6265498;23;19999;-81
2021/03/22 09:17:04;;;;;;;3.15;1.30;;;;;;;17.83;52.83;102715.28;6266741;23;20032;-80
2021/03/22 09:19:38;;;;;;;3.47;1.42;;;;;;;17.86;52.74;102722.28;6239530;23;20016;-80
2021/03/22 09:26:16;;;;;;;2.55;1.00;;;;;;;18.00;52.50;102722.53;6265433;23;20071;-81
2021/03/22 09:28:54;;;;;;;3.03;1.20;;;;;;;18.00;52.61;102725.13;6264911;23;20034;-80
2021/03/22 09:31:40;;;;;;;2.08;1.05;;;;;;;18.05;52.69;102723.47;6240875;23;20024;-82
2021/03/22 09:34:15;;;;;;;1.80;1.20;;;;;;;18.07;52.57;102721.78;6211363;23;20505;-81
2021/03/22 09:36:46;;;;;;;2.13;1.10;;;;;;;18.05;52.37;102721.78;6238376;23;20024;-80
2021/03/22 09:39:14;;;;;;;4.63;1.00;;;;;;;18.07;52.61;102721.78;6265197;23;19996;-80
2021/03/22 09:42:00;;;;;;;1.73;1.10;;;;;;;18.05;52.45;102727.00;6238119;23;20024;-80
2021/03/22 09:44:56;;;;;;;2.80;1.20;;;;;;;18.04;52.33;102725.22;6240631;23;20008;-80
2021/03/22 09:47:41;;;;;;;1.80;1.02;;;;;;;18.02;52.69;102728.66;6240507;23;20011;-81
2021/03/22 09:50:21;;;;;;;1.88;1.05;;;;;;;18.04;52.33;102727.81;6264786;22;20020;-81
2021/03/22 09:53:12;;;;;;;2.55;1.10;;;;;;;17.98;52.31;102725.09;6299341;22;20027;-81
2021/03/22 09:56:19;;;;;;;1.50;1.00;;;;;;;17.93;52.53;102738.91;6273860;22;20030;-81
2021/03/22 09:58:48;;;;;;;1.80;1.10;;;;;;;17.87;52.76;102731.84;6275394;22;19987;-82
2021/03/22 10:01:38;;;;;;;2.15;1.00;;;;;;;17.87;52.52;102742.25;6277429;22;20018;-81
2021/03/22 10:04:17;;;;;;;1.70;1.05;;;;;;;17.86;52.60;102736.16;6303914;22;20004;-81
2021/03/22 10:07:07;;;;;;;2.15;1.02;;;;;;;17.87;52.64;102735.31;6280364;22;20015;-81
2021/03/22 10:09:59;;;;;;;1.65;1.00;;;;;;;17.87;52.59;102727.50;6279868;22;20071;-81
2021/03/22 10:13:03;;;;;;;2.42;1.00;;;;;;;17.83;52.61;102725.72;6255093;22;20025;-81
2021/03/22 10:15:38;;;;;;;2.43;1.00;;;;;;;17.80;52.68;102730.81;6274679;22;20067;-81
2021/03/22 10:18:33;;;;;;;2.65;1.15;;;;;;;17.81;52.86;102729.97;6296803;22;20004;-81
2021/03/22 10:21:47;;;;;;;2.97;1.02;;;;;;;17.79;52.80;102736.88;6255118;22;20080;-81
2021/03/22 10:24:51;;;;;;;1.67;1.13;;;;;;;17.79;52.69;102717.75;6240373;23;20011;-81
2021/03/22 10:27:23;;;;;;;1.38;0.90;;;;;;;17.83;52.47;102720.50;6215735;23;20004;-81
2021/03/22 10:30:12;;;;;;;1.52;1.00;;;;;;;17.85;52.52;102729.19;6226419;23;20016;-82
2021/03/22 10:32:50;;;;;;;1.35;0.85;;;;;;;17.81;52.59;102722.16;6211769;23;20012;-81
2021/03/22 10:35:22;;;;;;;1.50;1.00;;;;;;;17.81;52.45;102722.16;6209647;23;20005;-80
2021/03/22 10:37:54;;;;;;;2.10;0.90;;;;;;;17.82;52.54;102728.28;6182018;23;20009;-80
2021/03/22 10:40:34;;;;;;;2.55;1.20;;;;;;;17.87;52.32;102730.09;6208513;23;20004;-80
2021/03/22 10:43:03;;;;;;;2.47;1.20;;;;;;;17.90;52.46;102726.69;6207867;23;20027;-81
2021/03/22 10:45:38;;;;;;;1.73;1.00;;;;;;;17.89;52.41;102736.22;6205705;22;20016;-80
2021/03/22 10:48:45;;;;;;;3.38;1.15;;;;;;;17.93;52.46;102738.91;6273221;23;20004;-81
2021/03/22 10:51:51;;;;;;;2.33;1.15;;;;;;;17.96;52.46;102749.38;6270928;23;20012;-80
2021/03/22 10:54:43;;;;;;;1.40;0.90;;;;;;;17.95;52.34;102742.41;6244008;23;20015;-80
2021/03/22 11:00:56;;;;;;;1.92;1.08;;;;;;;17.99;52.17;102739.91;6272608;23;20039;-80
2021/03/22 11:03:40;;;;;;;2.13;1.17;;;;;;;18.01;52.18;102739.94;6243548;23;20004;-80
2021/03/22 11:06:19;;;;;;;1.55;0.90;;;;;;;17.98;51.98;102743.34;6267280;23;20008;-81
2021/03/22 11:09:16;;;;;;;1.70;1.00;;;;;;;18.01;52.09;102740.81;6243400;23;20004;-80
2021/03/22 11:11:43;;;;;;;1.48;0.88;;;;;;;18.03;52.08;102733.91;6242215;23;20004;-81
2021/03/22 11:14:13;;;;;;;1.77;1.00;;;;;;;18.02;51.88;102731.25;6242800;23;20095;-80
2021/03/22 11:16:43;;;;;;;2.45;0.93;;;;;;;18.07;52.00;102747.84;6241794;23;20146;-80
2021/03/22 11:19:36;;;;;;;1.40;0.88;;;;;;;18.11;51.67;102735.75;6239995;23;20047;-81
2021/03/22 11:22:01;;;;;;;1.17;0.70;;;;;;;18.15;51.80;102741.06;6210512;23;20135;-80
2021/03/22 11:24:35;;;;;;;3.80;1.10;;;;;;;18.21;51.77;102743.78;6212233;23;20005;-81
2021/03/22 11:27:26;;;;;;;1.67;0.80;;;;;;;18.20;51.60;102736.78;6236918;23;20001;-82
2021/03/22 11:33:06;;;;;;;1.33;0.73;;;;;;;18.20;51.84;102736.78;6294521;22;20075;-81
2021/03/22 11:35:32;;;;;;;1.70;0.90;;;;;;;18.19;51.87;102744.59;6297956;22;20011;-81
2021/03/22 11:40:34;;;;;;;1.10;0.70;;;;;;;18.18;51.80;102738.53;6270120;22;20011;-81
2021/03/22 11:43:37;;;;;;;1.23;0.85;;;;;;;18.20;51.85;102747.22;6269665;22;20009;-81
2021/03/22 11:49:43;;;;;;;1.17;0.82;;;;;;;18.16;51.79;102736.72;6270220;23;20074;-80
2021/03/22 11:52:24;;;;;;;1.48;0.90;;;;;;;18.13;51.92;102747.97;6270156;23;20001;-80
2021/03/22 11:55:11;;;;;;;0.85;0.70;;;;;;;18.09;51.87;102752.25;6269335;23;20007;-80
2021/03/22 11:57:50;;;;;;;1.67;0.70;;;;;;;18.08;52.08;102744.41;6271053;22;20026;-81
2021/03/22 12:00:43;;;;;;;1.15;0.60;;;;;;;18.09;52.00;102751.34;6270689;23;20011;-81
2021/03/22 12:03:28;;;;;;;1.52;0.60;;;;;;;18.08;52.11;102744.41;6271366;22;20011;-80
2021/03/22 12:06:24;;;;;;;1.30;0.80;;;;;;;18.13;52.04;102739.28;6268670;23;20016;-81
2021/03/22 12:08:55;;;;;;;1.35;0.60;;;;;;;18.17;51.95;102734.13;6240288;23;20008;-81
2021/03/22 12:11:25;;;;;;;1.45;0.82;;;;;;;18.14;52.03;102746.22;6280292;22;20004;-82
2021/03/22 12:13:54;;;;;;;1.65;0.77;;;;;;;18.15;52.19;102740.19;6276094;22;20018;-81
2021/03/22 12:16:24;;;;;;;2.40;0.80;;;;;;;18.11;51.79;102741.84;6227820;22;20046;-81
2021/03/22 12:18:54;;;;;;;1.52;0.65;;;;;;;18.10;52.08;102737.50;6275371;22;19995;-81
2021/03/22 12:21:20;;;;;;;1.00;0.70;;;;;;;18.09;52.01;102744.44;6272911;22;20016;-81
2021/03/22 12:23:47;;;;;;;1.92;0.80;;;;;;;18.14;52.02;102746.22;6272709;22;20391;-81
2021/03/22 12:26:17;;;;;;;1.60;0.68;;;;;;;18.12;52.05;102742.72;6300524;22;20003;-82
2021/03/22 12:32:08;;;;;;;2.33;0.90;;;;;;;18.12;52.24;102741.00;6269768;23;20027;-80
2021/03/22 12:37:30;;;;;;;1.63;0.70;;;;;;;18.14;51.95;102739.31;6268093;22;20024;-80
2021/03/22 12:42:43;;;;;;;1.63;0.68;;;;;;;18.13;52.01;102737.53;6267283;22;20016;-80
2021/03/22 12:45:47;;;;;;;2.30;0.82;;;;;;;18.17;52.07;102743.69;6240109;23;20004;-80
2021/03/22 12:48:12;;;;;;;1.83;0.80;;;;;;;18.16;51.95;102745.44;6265210;23;20004;-80
2021/03/22 12:50:45;;;;;;;1.02;0.60;;;;;;;18.16;51.86;102740.22;6266762;23;20019;-81
2021/03/22 12:53:14;;;;;;;1.10;0.70;;;;;;;18.17;51.79;102741.09;6266314;23;20010;-80
2021/03/22 12:55:42;;;;;;;0.75;0.60;;;;;;;18.16;51.73;102729.78;6240380;23;20039;-81
2021/03/22 13:01:45;;;;;;;0.70;0.60;;;;;;;18.23;51.74;102744.69;6285756;22;20482;-82
2021/03/22 13:07:36;;;;;;;1.33;0.68;;;;;;;18.21;51.98;102722.94;6281764;22;20054;-81
2021/03/22 13:10:12;;;;;;;1.00;0.68;;;;;;;18.25;51.80;102736.91;6219790;23;20012;-81
2021/03/22 13:12:55;;;;;;;0.98;0.50;;;;;;;18.23;51.37;102718.63;6242174;23;20008;-81
2021/03/22 13:15:47;;;;;;;0.63;0.47;;;;;;;18.26;51.64;102723.88;6267342;22;20039;-81
2021/03/22 13:18:34;;;;;;;1.23;0.60;;;;;;;18.25;51.72;102719.53;6243196;23;20058;-81
2021/03/22 13:21:12;;;;;;;0.90;0.60;;;;;;;18.26;51.65;102716.06;6267191;22;20023;-81
2021/03/22 13:27:23;;;;;;;0.82;0.50;;;;;;;18.26;51.46;102718.66;6272543;23;20027;-81
2021/03/22 13:30:03;;;;;;;0.75;0.50;;;;;;;18.25;51.56;102710.84;6270977;23;20000;-82
2021/03/22 13:32:29;;;;;;;0.57;0.57;;;;;;;18.27;51.46;102724.78;6245788;23;19988;-81
2021/03/22 13:37:52;;;;;;;0.80;0.60;;;;;;;18.27;51.58;102716.97;6291825;22;20023;-81
2021/03/22 13:40:28;;;;;;;0.60;0.47;;;;;;;18.25;51.58;102714.31;6250864;22;20090;-81
2021/03/22 13:43:13;;;;;;;1.10;0.50;;;;;;;18.26;51.24;102712.59;6273741;22;20008;-81
2021/03/22 13:45:48;;;;;;;0.55;0.45;;;;;;;18.25;51.74;102706.50;6266201;22;20048;-81
2021/03/22 13:48:16;;;;;;;0.95;0.60;;;;;;;18.28;51.34;102709.13;6269423;23;20356;-83
2021/03/22 13:54:00;;;;;;;0.63;0.40;;;;;;;18.26;51.34;102708.22;6254602;22;20049;-81
2021/03/22 13:56:28;;;;;;;0.77;0.40;;;;;;;18.27;51.42;102701.31;6297316;22;20007;-80
2021/03/22 13:58:55;;;;;;;0.77;0.50;;;;;;;18.28;51.34;102703.94;6217655;22;20012;-82
2021/03/22 14:01:27;;;;;;;0.85;0.30;;;;;;;18.30;51.35;102712.66;6269102;22;20004;-80
2021/03/22 14:03:54;;;;;;;0.47;0.40;;;;;;;18.28;51.32;102708.28;6296177;22;20008;-82
2021/03/22 14:06:19;;;;;;;0.90;0.50;;;;;;;18.27;51.40;102712.63;6271603;22;19984;-82
2021/03/22 14:09:15;;;;;;;0.47;0.35;;;;;;;18.33;51.41;102710.97;6249232;22;20072;-83
2021/03/22 14:12:31;;;;;;;1.08;0.47;;;;;;;18.36;51.31;102708.41;6299686;22;20007;-82
2021/03/22 14:17:33;;;;;;;0.57;0.50;;;;;;;18.41;51.09;102694.59;6300603;22;20083;-81
2021/03/22 14:20:00;;;;;;;1.17;0.40;;;;;;;18.41;51.24;102693.72;6274006;22;20022;-80
2021/03/22 14:23:09;;;;;;;1.38;0.50;;;;;;;18.43;50.99;102690.28;6274475;22;20023;-83
2021/03/22 14:29:04;;;;;;;0.90;0.40;;;;;;;18.43;51.15;102673.78;6303506;22;20042;-83
2021/03/22 14:31:33;;;;;;;1.23;0.40;;;;;;;18.42;51.17;102669.41;6301682;22;20030;-82
2021/03/22 14:34:37;;;;;;;0.85;0.50;;;;;;;18.45;51.20;102675.53;6252694;22;19988;-81
2021/03/22 14:37:03;;;;;;;0.45;0.43;;;;;;;18.46;51.12;102663.38;6279208;22;20011;-78
2021/03/22 14:39:28;;;;;;;0.80;0.45;;;;;;;18.45;51.04;102669.47;6271742;22;20035;-82
2021/03/22 14:41:54;;;;;;;0.50;0.40;;;;;;;18.47;51.26;102672.97;6274034;22;20002;-82
2021/03/22 14:44:23;;;;;;;0.60;0.35;;;;;;;18.45;51.24;102662.50;6271146;22;20031;-81
2021/03/22 14:46:52;;;;;;;0.30;0.30;;;;;;;18.49;51.13;102676.47;6270865;23;20004;-81
2021/03/22 14:49:36;;;;;;;0.68;0.40;;;;;;;18.47;51.23;102662.53;6270213;23;20052;-82
2021/03/22 14:52:03;;;;;;;0.63;0.40;;;;;;;18.48;51.03;102664.28;6270339;23;20007;-81
2021/03/22 14:54:29;;;;;;;0.60;0.47;;;;;;;18.47;51.38;102667.75;6218647;23;20072;-83
2021/03/22 14:56:54;;;;;;;0.95;0.57;;;;;;;18.45;51.15;102666.84;6269116;23;20027;-82
2021/03/22 14:59:20;;;;;;;0.60;0.30;;;;;;;18.45;51.35;102662.50;6272341;23;20038;-81
2021/03/22 15:04:46;;;;;;;0.65;0.40;;;;;;;18.45;51.31;102662.50;6235699;23;20016;-83
2021/03/22 15:13:44;;;;;;;0.63;0.40;;;;;;;18.45;51.24;102659.91;6294290;22;20103;-82
2021/03/22 15:16:51;;;;;;;0.63;0.50;;;;;;;18.47;51.15;102659.94;6298908;22;20045;-82
2021/03/22 15:22:04;;;;;;;0.90;0.50;;;;;;;18.44;51.05;102655.56;6282907;22;20016;-81
2021/03/22 15:24:30;;;;;;;1.10;0.40;;;;;;;18.47;51.16;102663.41;6251449;22;20053;-83
2021/03/22 15:27:35;;;;;;;0.40;0.40;;;;;;;18.47;51.06;102663.41;6266198;22;20020;-82
2021/03/22 15:30:38;;;;;;;0.50;0.40;;;;;;;18.47;51.04;102667.75;6280107;22;20019;-81
2021/03/22 15:33:34;;;;;;;0.80;0.50;;;;;;;18.48;50.95;102661.69;6255262;22;20007;-84
2021/03/22 15:36:29;;;;;;;0.68;0.50;;;;;;;18.47;50.98;102653.00;6269817;22;20031;-81
2021/03/22 15:45:41;;;;;;;0.60;0.40;;;;;;;18.48;51.15;102659.06;6302004;22;20046;-81
2021/03/22 15:48:16;;;;;;;1.98;0.50;;;;;;;18.44;51.14;102650.34;6304233;22;20071;-81
2021/03/22 15:53:25;;;;;;;2.95;0.70;;;;;;;18.42;51.36;102653.75;6241498;22;20064;-83